Time;durP1;ratioP1;P1;durP2;ratioP2;P2;SDS_P1;SDS_P2;PMS_P1;PMS_P2;Temp;Humidity;BMP_temperature;BMP_pressure;BME280_temperature;BME280_humidity;BME280_pressure;Samples;Min_cycle;Max_cycle;Signal;HPM_P1;HPM_P2
2024/01/12 00:00:37;;;;;;;0.70;0.70;;;-1.90;99.90;;;;;;5058782;28;20249;-78
2024/01/12 00:03:04;;;;;;;0.70;0.70;;;-1.60;99.90;;;;;;5061707;28;20205;-79
2024/01/12 00:05:35;;;;;;;0.75;0.75;;;-1.50;99.90;;;;;;5078807;28;20223;-82
2024/01/12 00:08:01;;;;;;;0.88;0.88;;;-1.30;99.90;;;;;;5079358;28;20180;-79
2024/01/12 00:10:51;;;;;;;;;;;;;;;;;;;;;
2024/01/12 00:13:17;;;;;;;0.70;0.70;;;-1.00;99.90;;;;;;5077919;28;20213;-81
2024/01/12 00:15:43;;;;;;;0.70;0.70;;;-0.90;99.90;;;;;;5075889;28;20193;-79
2024/01/12 00:18:23;;;;;;;0.70;0.70;;;-0.90;99.90;;;;;;5077660;28;20253;-78
2024/01/12 00:20:52;;;;;;;0.60;0.60;;;-1.00;99.90;;;;;;5077901;28;20225;-80
2024/01/12 00:23:26;;;;;;;0.70;0.70;;;-1.10;99.90;;;;;;5076562;28;20256;-81
2024/01/12 00:25:58;;;;;;;0.60;0.60;;;-1.20;99.90;;;;;;5074724;28;20219;-79
2024/01/12 00:28:28;;;;;;;0.70;0.70;;;-1.30;99.90;;;;;;5075340;28;20186;-79
2024/01/12 00:30:56;;;;;;;0.70;0.70;;;-1.40;99.90;;;;;;5078228;28;20283;-79
2024/01/12 00:33:28;;;;;;;0.70;0.70;;;-1.50;99.90;;;;;;5081801;28;20248;-78
2024/01/12 00:36:02;;;;;;;0.77;0.77;;;-1.80;99.90;;;;;;5057644;28;20288;-78
2024/01/12 00:38:28;;;;;;;0.75;0.75;;;-2.00;99.90;;;;;;5074876;28;20192;-78
2024/01/12 00:41:02;;;;;;;0.70;0.70;;;-2.20;99.90;;;;;;5056098;28;20734;-78
2024/01/12 00:43:28;;;;;;;0.70;0.70;;;-2.40;99.90;;;;;;5055976;28;20289;-78
2024/01/12 00:45:53;;;;;;;0.70;0.70;;;-2.50;99.90;;;;;;5074094;28;20271;-78
2024/01/12 00:48:19;;;;;;;0.85;0.85;;;-2.60;99.90;;;;;;5074118;28;20189;-79
2024/01/12 00:50:45;;;;;;;0.60;0.60;;;-2.70;99.90;;;;;;5073637;28;20185;-78
2024/01/12 00:53:10;;;;;;;0.60;0.60;;;-2.80;99.90;;;;;;5073479;28;20189;-79
2024/01/12 00:55:36;;;;;;;0.70;0.70;;;-2.80;99.90;;;;;;5055630;28;20820;-78
2024/01/12 00:58:02;;;;;;;0.60;0.60;;;-2.70;99.90;;;;;;5055644;28;20197;-78
2024/01/12 01:00:27;;;;;;;0.70;0.70;;;-2.60;99.90;;;;;;5073153;28;20644;-78
2024/01/12 01:02:53;;;;;;;0.80;0.80;;;-2.50;99.90;;;;;;5055243;28;20204;-77
2024/01/12 01:05:19;;;;;;;0.80;0.80;;;-2.40;99.90;;;;;;5073355;28;20667;-78
2024/01/12 01:10:57;;;;;;;0.70;0.70;;;-2.30;99.90;;;;;;5053320;28;20221;-82
2024/01/12 01:13:23;;;;;;;0.80;0.80;;;-2.30;99.90;;;;;;5017063;28;20214;-82
2024/01/12 01:15:49;;;;;;;0.80;0.80;;;-2.20;99.90;;;;;;5033965;28;20198;-82
2024/01/12 01:18:17;;;;;;;0.80;0.80;;;-2.20;99.90;;;;;;5033744;28;20277;-83
2024/01/12 01:20:42;;;;;;;0.77;0.77;;;-2.30;99.90;;;;;;5033428;28;20206;-82
2024/01/12 01:23:08;;;;;;;0.80;0.80;;;-2.50;99.90;;;;;;5015701;28;20214;-81
2024/01/12 01:25:35;;;;;;;0.88;0.88;;;-2.60;99.90;;;;;;5015430;28;20201;-80
2024/01/12 01:28:02;;;;;;;0.77;0.77;;;-2.70;99.90;;;;;;5015465;28;20262;-81
2024/01/12 01:30:27;;;;;;;0.80;0.80;;;-2.70;99.90;;;;;;5015448;28;20635;-82
2024/01/12 01:32:53;;;;;;;0.73;0.73;;;-2.60;99.90;;;;;;5015535;28;20293;-81
2024/01/12 01:35:19;;;;;;;0.70;0.70;;;-2.50;99.90;;;;;;5015380;28;20197;-81
2024/01/12 01:37:45;;;;;;;0.80;0.80;;;-2.50;99.90;;;;;;5033188;28;20218;-80
2024/01/12 01:40:11;;;;;;;0.80;0.80;;;-2.40;99.90;;;;;;5033126;28;20194;-82
2024/01/12 01:42:36;;;;;;;0.80;0.80;;;-2.20;99.90;;;;;;5032992;28;20233;-82
2024/01/12 01:45:02;;;;;;;0.70;0.70;;;-2.10;99.90;;;;;;5033080;28;20194;-82
2024/01/12 01:47:28;;;;;;;0.80;0.80;;;-2.10;99.90;;;;;;5015619;28;20201;-82
2024/01/12 01:49:55;;;;;;;0.90;0.90;;;-2.00;99.90;;;;;;5015570;28;20190;-81
2024/01/12 01:52:22;;;;;;;0.82;0.82;;;-1.90;99.90;;;;;;5033007;28;20570;-82
2024/01/12 01:54:48;;;;;;;0.70;0.70;;;-1.60;99.90;;;;;;5032801;28;20194;-82
2024/01/12 01:57:15;;;;;;;0.80;0.80;;;-1.60;99.90;;;;;;5015522;28;20198;-82
2024/01/12 01:59:41;;;;;;;0.70;0.70;;;-1.50;99.90;;;;;;5015167;28;20202;-81
2024/01/12 02:02:08;;;;;;;0.70;0.70;;;-1.70;99.90;;;;;;5014828;28;20289;-82
2024/01/12 02:04:34;;;;;;;0.80;0.80;;;-1.80;99.90;;;;;;5032725;28;20646;-82
2024/01/12 02:07:01;;;;;;;0.80;0.80;;;-2.00;99.90;;;;;;5019531;28;20197;-82
2024/01/12 02:09:28;;;;;;;0.70;0.70;;;-2.00;99.90;;;;;;5036125;28;20352;-82
2024/01/12 02:11:54;;;;;;;1.27;1.05;;;-2.00;99.90;;;;;;5037211;28;20197;-82
2024/01/12 02:14:20;;;;;;;0.82;0.82;;;-2.10;99.90;;;;;;5035327;28;20206;-82
2024/01/12 02:16:46;;;;;;;0.70;0.70;;;-2.20;99.90;;;;;;5036943;28;20198;-81
2024/01/12 02:19:12;;;;;;;0.70;0.70;;;-2.10;99.90;;;;;;5035891;28;20233;-77
2024/01/12 02:21:38;;;;;;;0.70;0.70;;;-2.10;99.90;;;;;;5034826;28;20303;-78
2024/01/12 02:24:04;;;;;;;0.77;0.77;;;-1.80;99.90;;;;;;5036213;28;20209;-78
2024/01/12 02:26:30;;;;;;;0.80;0.80;;;-1.70;99.90;;;;;;5018495;28;20668;-78
2024/01/12 02:28:57;;;;;;;0.70;0.70;;;-1.70;99.90;;;;;;5018511;28;20554;-78
2024/01/12 02:31:24;;;;;;;0.77;0.77;;;-1.70;99.90;;;;;;5036651;28;20645;-78
2024/01/12 02:33:49;;;;;;;0.68;0.68;;;-1.70;99.90;;;;;;5036316;28;20626;-78
2024/01/12 02:36:15;;;;;;;0.70;0.70;;;-1.80;99.90;;;;;;5036031;28;20277;-78
2024/01/12 02:38:42;;;;;;;0.70;0.70;;;-1.90;99.90;;;;;;5035973;28;20616;-78
2024/01/12 02:41:08;;;;;;;0.70;0.70;;;-2.00;99.90;;;;;;5036243;28;20629;-78
2024/01/12 02:43:34;;;;;;;0.70;0.70;;;-1.90;99.90;;;;;;5018450;28;20210;-78
2024/01/12 02:46:00;;;;;;;0.70;0.70;;;-1.90;99.90;;;;;;5018334;28;20225;-78
2024/01/12 02:48:25;;;;;;;0.60;0.60;;;-1.90;99.90;;;;;;5018054;28;20198;-77
2024/01/12 02:50:51;;;;;;;0.70;0.70;;;-2.00;99.90;;;;;;5036085;28;20201;-78
2024/01/12 02:53:18;;;;;;;0.70;0.70;;;-2.00;99.90;;;;;;5036375;28;20237;-78
2024/01/12 02:55:43;;;;;;;0.70;0.70;;;-2.20;99.90;;;;;;5018106;28;20225;-78
2024/01/12 02:58:09;;;;;;;0.80;0.80;;;-2.40;99.90;;;;;;5017979;28;20237;-78
2024/01/12 03:00:35;;;;;;;0.70;0.70;;;-2.50;99.90;;;;;;5035642;28;20194;-78
2024/01/12 03:03:00;;;;;;;0.57;0.57;;;-2.70;99.90;;;;;;5035738;28;20211;-77
2024/01/12 03:05:26;;;;;;;0.70;0.70;;;-2.70;99.90;;;;;;5029136;28;20290;-78
2024/01/12 03:07:51;;;;;;;0.73;0.73;;;-2.90;99.90;;;;;;5035875;28;20209;-78
2024/01/12 03:10:18;;;;;;;0.70;0.70;;;-2.80;99.90;;;;;;5033951;28;20234;-78
2024/01/12 03:12:43;;;;;;;0.60;0.60;;;-2.80;99.90;;;;;;5035432;28;20194;-77
2024/01/12 03:15:09;;;;;;;0.70;0.70;;;-2.60;99.90;;;;;;5035599;28;20198;-77
2024/01/12 03:17:35;;;;;;;0.70;0.70;;;-2.60;99.90;;;;;;5035043;28;20195;-78
2024/01/12 03:20:00;;;;;;;0.70;0.70;;;-2.50;99.90;;;;;;5035436;28;20248;-78
2024/01/12 03:22:26;;;;;;;0.77;0.77;;;-2.50;99.90;;;;;;5035051;28;20194;-78
2024/01/12 03:24:52;;;;;;;0.70;0.70;;;-2.50;99.90;;;;;;5035311;28;20190;-78
2024/01/12 03:27:17;;;;;;;0.70;0.70;;;-2.60;99.90;;;;;;5017595;28;20257;-79
2024/01/12 03:29:43;;;;;;;0.70;0.70;;;-2.60;99.90;;;;;;5035168;28;20194;-78
2024/01/12 03:32:08;;;;;;;0.80;0.80;;;-2.70;99.90;;;;;;5017552;28;20203;-78
2024/01/12 03:34:34;;;;;;;0.70;0.70;;;-2.80;99.90;;;;;;5035030;28;20248;-78
2024/01/12 03:37:00;;;;;;;0.70;0.70;;;-2.80;99.90;;;;;;5017402;28;20285;-78
2024/01/12 03:39:25;;;;;;;0.68;0.68;;;-2.90;99.90;;;;;;5017218;28;20202;-78
2024/01/12 03:41:51;;;;;;;0.75;0.75;;;-2.90;99.90;;;;;;5017367;28;20359;-76
2024/01/12 03:44:17;;;;;;;0.90;0.90;;;-3.00;99.90;;;;;;5034811;28;20210;-79
2024/01/12 03:46:42;;;;;;;0.90;0.90;;;-3.00;99.90;;;;;;5017336;28;20273;-78
2024/01/12 03:49:08;;;;;;;0.70;0.70;;;-3.00;99.90;;;;;;5017233;28;20201;-78
2024/01/12 03:51:34;;;;;;;0.80;0.80;;;-2.90;99.90;;;;;;5034659;28;20202;-78
2024/01/12 03:53:59;;;;;;;0.80;0.80;;;-3.00;99.90;;;;;;5017225;28;20273;-78
2024/01/12 03:56:25;;;;;;;0.80;0.80;;;-3.00;99.90;;;;;;5034684;28;20273;-79
2024/01/12 03:58:51;;;;;;;0.82;0.82;;;-3.00;99.90;;;;;;5017094;28;20206;-78
2024/01/12 04:01:17;;;;;;;0.88;0.88;;;-3.00;99.90;;;;;;5016323;28;20198;-78
2024/01/12 04:03:43;;;;;;;0.90;0.90;;;-3.00;99.90;;;;;;5005937;28;20634;-78
2024/01/12 04:06:09;;;;;;;0.80;0.80;;;-3.00;99.90;;;;;;4997550;28;20227;-78
2024/01/12 04:08:35;;;;;;;0.75;0.75;;;-3.10;99.90;;;;;;4997389;28;20563;-78
2024/01/12 04:11:00;;;;;;;0.68;0.68;;;-3.30;99.90;;;;;;4997276;28;20233;-78
2024/01/12 04:13:26;;;;;;;0.80;0.80;;;-3.30;99.90;;;;;;4997314;28;20233;-78
2024/01/12 04:15:52;;;;;;;0.80;0.80;;;-3.40;99.90;;;;;;5000031;28;20601;-77
2024/01/12 04:18:18;;;;;;;0.70;0.70;;;-3.40;99.90;;;;;;5016587;28;20205;-78
2024/01/12 04:20:44;;;;;;;0.77;0.77;;;-3.30;99.90;;;;;;5016760;28;20562;-77
2024/01/12 04:23:10;;;;;;;0.70;0.70;;;-3.30;99.90;;;;;;5016568;28;20279;-78
2024/01/12 04:25:36;;;;;;;0.80;0.80;;;-3.20;99.90;;;;;;5034285;28;20200;-77
2024/01/12 04:28:01;;;;;;;1.05;1.05;;;-3.10;99.90;;;;;;5015893;28;20569;-77
2024/01/12 04:30:27;;;;;;;0.70;0.70;;;-3.20;99.90;;;;;;5034256;28;20211;-77
2024/01/12 04:32:53;;;;;;;0.80;0.80;;;-3.30;99.90;;;;;;5034434;28;20201;-77
2024/01/12 04:35:19;;;;;;;0.70;0.70;;;-3.20;99.90;;;;;;5016320;28;20202;-77
2024/01/12 04:37:44;;;;;;;0.70;0.70;;;-3.20;99.90;;;;;;5016676;28;20217;-77
2024/01/12 04:40:10;;;;;;;0.80;0.80;;;-3.30;99.90;;;;;;5016495;28;20206;-77
2024/01/12 04:42:36;;;;;;;0.80;0.80;;;-3.40;99.90;;;;;;5015979;28;20206;-77
2024/01/12 04:45:02;;;;;;;0.80;0.80;;;-3.50;99.90;;;;;;5033735;28;20198;-78
2024/01/12 04:47:28;;;;;;;0.70;0.70;;;-3.40;99.90;;;;;;5015881;28;20282;-77
2024/01/12 04:49:53;;;;;;;0.88;0.88;;;-3.40;99.90;;;;;;5033660;28;20288;-78
2024/01/12 04:52:19;;;;;;;0.70;0.70;;;-3.40;99.90;;;;;;5016191;28;20285;-78
2024/01/12 04:54:44;;;;;;;0.90;0.90;;;-3.50;99.90;;;;;;5033633;28;20701;-77
2024/01/12 04:57:10;;;;;;;0.80;0.80;;;-3.60;99.90;;;;;;5033537;28;20198;-76
2024/01/12 04:59:36;;;;;;;0.70;0.70;;;-3.60;99.90;;;;;;5016142;28;20194;-77
2024/01/12 05:02:02;;;;;;;0.90;0.90;;;-3.60;99.90;;;;;;5033769;28;20277;-77
2024/01/12 05:04:27;;;;;;;0.80;0.80;;;-3.70;99.90;;;;;;5015565;28;20210;-77
2024/01/12 05:06:53;;;;;;;0.80;0.80;;;-3.70;99.90;;;;;;5016073;28;20224;-77
2024/01/12 05:09:19;;;;;;;0.73;0.73;;;-3.80;99.90;;;;;;5015432;28;20287;-80
2024/01/12 05:11:44;;;;;;;0.85;0.85;;;-3.80;99.90;;;;;;5015818;28;20253;-79
2024/01/12 05:14:10;;;;;;;0.70;0.70;;;-3.80;99.90;;;;;;5013121;28;20200;-79
2024/01/12 05:16:35;;;;;;;0.80;0.80;;;-3.60;99.90;;;;;;5016729;28;20213;-78
2024/01/12 05:19:02;;;;;;;0.77;0.77;;;-3.70;99.90;;;;;;5025960;28;20205;-79
2024/01/12 05:21:27;;;;;;;0.70;0.70;;;-3.60;99.90;;;;;;5057868;28;20334;-78
2024/01/12 05:23:53;;;;;;;0.70;0.70;;;-3.40;99.90;;;;;;5041279;28;20233;-79
2024/01/12 05:26:20;;;;;;;0.70;0.70;;;-3.40;99.90;;;;;;5057485;28;20391;-81
2024/01/12 05:28:45;;;;;;;0.77;0.77;;;-3.40;99.90;;;;;;5040484;28;20189;-79
2024/01/12 05:31:11;;;;;;;0.90;0.90;;;-3.50;99.90;;;;;;5040122;28;20202;-78
2024/01/12 05:33:37;;;;;;;0.85;0.85;;;-3.60;99.90;;;;;;5057039;28;20217;-80
2024/01/12 05:36:03;;;;;;;0.82;0.82;;;-3.70;99.90;;;;;;5035223;28;20213;-79
2024/01/12 05:38:28;;;;;;;0.70;0.70;;;-3.80;99.90;;;;;;5051786;28;20194;-78
2024/01/12 05:40:54;;;;;;;0.70;0.70;;;-3.80;99.90;;;;;;5032487;28;20201;-78
2024/01/12 05:43:20;;;;;;;0.90;0.90;;;-3.90;99.90;;;;;;5022338;28;20308;-78
2024/01/12 05:45:46;;;;;;;0.80;0.80;;;-3.80;99.90;;;;;;5016982;28;20198;-77
2024/01/12 05:48:12;;;;;;;0.90;0.90;;;-3.80;99.90;;;;;;5034357;28;20202;-80
2024/01/12 05:50:37;;;;;;;0.80;0.80;;;-3.80;99.90;;;;;;5015647;28;20915;-78
2024/01/12 05:53:05;;;;;;;0.80;0.80;;;-3.80;99.90;;;;;;5033164;28;20234;-78
2024/01/12 05:55:30;;;;;;;0.82;0.82;;;-3.80;99.90;;;;;;5015167;28;20634;-78
2024/01/12 05:57:56;;;;;;;0.70;0.70;;;-3.90;99.90;;;;;;5033044;28;20237;-78
2024/01/12 06:00:22;;;;;;;0.75;0.75;;;-4.00;99.90;;;;;;5015356;28;20256;-79
2024/01/12 06:02:48;;;;;;;0.88;0.88;;;-4.00;99.90;;;;;;5015013;28;20436;-78
2024/01/12 06:05:13;;;;;;;0.80;0.80;;;-4.00;99.90;;;;;;5015295;28;20198;-76
2024/01/12 06:07:39;;;;;;;0.80;0.80;;;-3.90;99.90;;;;;;5033091;28;20541;-78
2024/01/12 06:10:07;;;;;;;0.90;0.90;;;-3.90;99.90;;;;;;5032838;28;20643;-78
2024/01/12 06:12:33;;;;;;;0.90;0.90;;;-3.90;99.90;;;;;;5032628;28;20186;-78
2024/01/12 06:14:59;;;;;;;0.73;0.73;;;-3.90;99.90;;;;;;5032951;28;20194;-78
2024/01/12 06:17:25;;;;;;;0.90;0.90;;;-3.70;99.90;;;;;;5032774;28;20186;-78
2024/01/12 06:19:51;;;;;;;0.90;0.90;;;-3.70;99.90;;;;;;5033037;28;20198;-78
2024/01/12 06:22:17;;;;;;;0.90;0.90;;;-3.80;99.90;;;;;;5015250;28;20250;-78
2024/01/12 06:24:42;;;;;;;0.90;0.90;;;-3.90;99.90;;;;;;5014959;28;20191;-78
2024/01/12 06:27:08;;;;;;;0.90;0.90;;;-4.10;99.90;;;;;;5014995;28;20202;-78
2024/01/12 06:29:35;;;;;;;1.00;1.00;;;-4.30;99.90;;;;;;5014772;28;20241;-78
2024/01/12 06:32:03;;;;;;;0.90;0.90;;;-4.50;99.90;;;;;;5015031;28;20194;-78
2024/01/12 06:34:29;;;;;;;0.90;0.90;;;-4.60;99.90;;;;;;5014695;28;20289;-78
2024/01/12 06:36:56;;;;;;;0.80;0.80;;;-4.70;99.90;;;;;;5032901;28;20681;-77
2024/01/12 06:39:22;;;;;;;1.48;1.38;;;-4.80;99.90;;;;;;5014733;28;20214;-77
2024/01/12 06:41:48;;;;;;;0.80;0.80;;;-4.90;99.90;;;;;;5014953;28;20385;-77
2024/01/12 06:44:14;;;;;;;0.90;0.90;;;-5.00;99.90;;;;;;5032315;28;20210;-78
2024/01/12 06:46:43;;;;;;;0.90;0.90;;;-5.00;99.90;;;;;;5014895;28;20209;-79
2024/01/12 06:49:09;;;;;;;0.77;0.77;;;-5.10;99.90;;;;;;5032512;28;20191;-79
2024/01/12 06:51:35;;;;;;;0.80;0.80;;;-5.20;99.90;;;;;;5016134;28;20226;-77
2024/01/12 06:54:01;;;;;;;0.90;0.90;;;-5.10;99.90;;;;;;5018621;28;20608;-78
2024/01/12 06:56:27;;;;;;;0.80;0.80;;;-5.10;99.90;;;;;;5035939;28;20606;-78
2024/01/12 06:58:52;;;;;;;0.73;0.73;;;-5.00;99.90;;;;;;5018806;28;20224;-82
2024/01/12 07:01:19;;;;;;;0.88;0.88;;;-4.90;99.90;;;;;;5018628;28;20202;-81
2024/01/12 07:03:45;;;;;;;0.90;0.90;;;-4.70;99.90;;;;;;5018156;28;20217;-81
2024/01/12 07:06:11;;;;;;;0.80;0.80;;;-4.60;99.90;;;;;;5018060;28;20203;-82
2024/01/12 07:08:37;;;;;;;0.80;0.80;;;-4.60;99.90;;;;;;5018395;28;20252;-80
2024/01/12 07:11:05;;;;;;;0.80;0.80;;;-4.60;99.90;;;;;;5018755;28;20588;-81
2024/01/12 07:13:30;;;;;;;0.90;0.90;;;-4.70;99.90;;;;;;5036039;28;20190;-80
2024/01/12 07:15:56;;;;;;;0.90;0.90;;;-4.80;99.90;;;;;;5035977;28;20327;-80
2024/01/12 07:18:24;;;;;;;1.20;1.20;;;-5.00;99.90;;;;;;5035453;28;20198;-80
2024/01/12 07:20:50;;;;;;;0.80;0.80;;;-5.00;99.90;;;;;;5035604;28;20344;-81
2024/01/12 07:23:16;;;;;;;0.90;0.90;;;-4.90;99.90;;;;;;5017802;28;20737;-80
2024/01/12 07:25:41;;;;;;;0.75;0.75;;;-4.80;99.90;;;;;;5035915;28;20247;-80
2024/01/12 07:28:07;;;;;;;0.80;0.80;;;-4.70;99.90;;;;;;5036141;28;20182;-80
2024/01/12 07:30:33;;;;;;;0.90;0.90;;;-4.60;99.90;;;;;;5017524;28;20206;-77
2024/01/12 07:32:59;;;;;;;0.90;0.90;;;-4.40;99.90;;;;;;5035346;28;20205;-78
2024/01/12 07:35:24;;;;;;;0.90;0.90;;;-4.30;99.90;;;;;;5033991;28;20293;-77
2024/01/12 07:37:50;;;;;;;0.95;0.95;;;-4.20;99.90;;;;;;5035304;28;20273;-77
2024/01/12 07:40:17;;;;;;;0.82;0.82;;;-4.30;99.90;;;;;;5017618;28;20234;-78
2024/01/12 07:42:43;;;;;;;0.70;0.70;;;-4.30;99.90;;;;;;5033544;28;20202;-78
2024/01/12 07:45:11;;;;;;;0.73;0.73;;;-4.40;99.90;;;;;;5033700;28;20197;-78
2024/01/12 07:47:36;;;;;;;0.90;0.90;;;-4.40;99.90;;;;;;5034951;28;20201;-78
2024/01/12 07:50:03;;;;;;;0.85;0.85;;;-4.60;99.90;;;;;;5017093;28;20286;-78
2024/01/12 07:52:28;;;;;;;0.73;0.73;;;-4.70;99.90;;;;;;5034964;28;20186;-78
2024/01/12 07:54:54;;;;;;;0.93;0.93;;;-4.80;99.90;;;;;;5017118;28;20221;-78
2024/01/12 07:57:20;;;;;;;0.90;0.90;;;-4.80;99.90;;;;;;5017060;28;20229;-78
2024/01/12 07:59:45;;;;;;;3.33;1.35;;;-4.80;99.90;;;;;;5034874;28;20190;-79
2024/01/12 08:02:11;;;;;;;0.90;0.90;;;-4.70;99.90;;;;;;5016503;28;20729;-78
2024/01/12 08:04:37;;;;;;;0.80;0.80;;;-4.70;99.90;;;;;;5034361;28;20337;-78
2024/01/12 08:07:04;;;;;;;0.70;0.70;;;-4.50;99.90;;;;;;5034784;28;20555;-78
2024/01/12 08:09:30;;;;;;;0.80;0.80;;;-4.30;99.90;;;;;;5034519;28;20225;-78
2024/01/12 08:11:56;;;;;;;0.73;0.73;;;-4.10;99.90;;;;;;5034597;28;20197;-79
2024/01/12 08:14:21;;;;;;;0.88;0.88;;;-4.00;99.90;;;;;;5034296;28;20194;-78
2024/01/12 08:16:47;;;;;;;0.88;0.88;;;-3.80;99.90;;;;;;5034797;28;20194;-78
2024/01/12 08:19:13;;;;;;;0.80;0.80;;;-3.80;99.90;;;;;;5034372;28;20645;-78
2024/01/12 08:21:40;;;;;;;0.70;0.70;;;-3.70;99.90;;;;;;5016813;28;20294;-78
2024/01/12 08:24:06;;;;;;;0.70;0.70;;;-3.60;99.90;;;;;;5016502;28;20221;-78
2024/01/12 08:26:32;;;;;;;0.80;0.80;;;-3.50;99.90;;;;;;5034515;28;20197;-79
2024/01/12 08:29:01;;;;;;;0.70;0.70;;;-3.50;99.90;;;;;;5034244;28;20648;-79
2024/01/12 08:31:28;;;;;;;0.70;0.70;;;-3.40;99.90;;;;;;5016205;28;20650;-79
2024/01/12 08:33:54;;;;;;;0.90;0.90;;;-3.30;99.90;;;;;;5034136;28;20704;-79
2024/01/12 08:36:19;;;;;;;0.75;0.75;;;-3.20;99.90;;;;;;5034050;28;20194;-79
2024/01/12 08:38:45;;;;;;;0.77;0.77;;;-3.20;99.90;;;;;;5016268;28;20198;-79
2024/01/12 08:41:11;;;;;;;1.00;1.00;;;-3.10;99.90;;;;;;5034048;28;20217;-79
2024/01/12 08:43:37;;;;;;;0.80;0.80;;;-3.00;99.90;;;;;;5034772;28;20555;-79
2024/01/12 08:46:02;;;;;;;0.77;0.77;;;-2.80;99.90;;;;;;5016073;28;20221;-79
2024/01/12 08:48:28;;;;;;;0.80;0.80;;;-2.70;99.90;;;;;;5016109;28;20190;-79
2024/01/12 08:50:54;;;;;;;0.70;0.70;;;-2.70;99.90;;;;;;5033699;28;20209;-79
2024/01/12 08:53:19;;;;;;;0.80;0.80;;;-2.70;99.90;;;;;;5015889;28;20279;-80
2024/01/12 08:55:45;;;;;;;0.70;0.70;;;-2.70;99.90;;;;;;5033896;28;20226;-79
2024/01/12 08:58:11;;;;;;;0.80;0.80;;;-2.70;99.90;;;;;;5004697;28;20671;-80
2024/01/12 09:00:37;;;;;;;0.80;0.80;;;-2.60;99.90;;;;;;5013871;28;20317;-79
2024/01/12 09:03:03;;;;;;;0.70;0.70;;;-2.60;99.90;;;;;;5014181;28;20297;-79
2024/01/12 09:05:28;;;;;;;0.70;0.70;;;-2.50;99.90;;;;;;5013901;28;20548;-80
2024/01/12 09:07:54;;;;;;;0.70;0.70;;;-2.40;99.90;;;;;;5014102;28;20201;-79
2024/01/12 09:10:20;;;;;;;0.80;0.80;;;-2.30;99.90;;;;;;5013455;28;20218;-79
2024/01/12 09:12:46;;;;;;;0.80;0.80;;;-2.20;99.90;;;;;;5013672;28;20199;-79
2024/01/12 09:15:11;;;;;;;0.60;0.60;;;-2.10;99.90;;;;;;5013563;28;20195;-79
2024/01/12 09:17:37;;;;;;;0.80;0.80;;;-2.10;99.90;;;;;;5012335;28;20205;-79
2024/01/12 09:20:03;;;;;;;0.73;0.73;;;-2.00;99.90;;;;;;4996206;28;20225;-77
2024/01/12 09:22:29;;;;;;;0.70;0.70;;;-2.00;99.90;;;;;;5013359;28;20567;-77
2024/01/12 09:24:54;;;;;;;0.70;0.70;;;-1.90;99.90;;;;;;5013476;28;20199;-77
2024/01/12 09:27:20;;;;;;;0.60;0.60;;;-1.80;99.90;;;;;;5012195;28;20293;-78
2024/01/12 09:29:46;;;;;;;0.68;0.68;;;-1.80;99.90;;;;;;4996042;28;20190;-78
2024/01/12 09:32:11;;;;;;;0.63;0.63;;;-1.80;99.90;;;;;;5012214;28;20206;-76
2024/01/12 09:34:37;;;;;;;0.68;0.68;;;-1.70;99.90;;;;;;5013496;28;20202;-76
2024/01/12 09:37:03;;;;;;;0.65;0.65;;;-1.70;99.90;;;;;;5013602;28;20195;-77
2024/01/12 09:39:29;;;;;;;0.77;0.77;;;-1.70;99.90;;;;;;5011772;28;20205;-77
2024/01/12 09:42:00;;;;;;;0.70;0.70;;;-1.70;99.90;;;;;;5013475;28;20199;-78
2024/01/12 09:44:27;;;;;;;0.60;0.60;;;-1.70;99.90;;;;;;5011626;28;20705;-77
2024/01/12 09:46:56;;;;;;;0.70;0.70;;;-1.70;99.90;;;;;;5013462;28;20187;-76
2024/01/12 09:49:29;;;;;;;0.70;0.70;;;-1.70;99.90;;;;;;5013096;28;20194;-77
2024/01/12 09:51:59;;;;;;;0.70;0.70;;;-1.70;99.90;;;;;;5013332;28;20587;-78
2024/01/12 09:54:25;;;;;;;0.70;0.70;;;-1.60;99.90;;;;;;5024975;28;20737;-77
2024/01/12 09:56:55;;;;;;;0.80;0.80;;;-1.60;99.90;;;;;;5033221;28;20221;-77
2024/01/12 09:59:22;;;;;;;0.70;0.70;;;-1.60;99.90;;;;;;5032749;28;20219;-77
2024/01/12 10:01:49;;;;;;;0.70;0.70;;;-1.60;99.90;;;;;;5015226;28;20617;-77
2024/01/12 10:04:15;;;;;;;0.80;0.80;;;-1.50;99.90;;;;;;5015159;28;20222;-77
2024/01/12 10:06:40;;;;;;;0.70;0.70;;;-1.50;99.90;;;;;;5032642;28;20198;-77
2024/01/12 10:09:07;;;;;;;0.70;0.70;;;-1.40;99.90;;;;;;5033398;28;20276;-76
2024/01/12 10:11:33;;;;;;;0.70;0.70;;;-1.40;99.90;;;;;;5034083;28;20182;-77
2024/01/12 10:13:59;;;;;;;0.70;0.70;;;-1.30;99.90;;;;;;5033642;28;20225;-78
2024/01/12 10:16:29;;;;;;;0.75;0.75;;;-1.40;99.90;;;;;;5039972;28;20194;-79
2024/01/12 10:18:58;;;;;;;0.60;0.60;;;-1.30;99.90;;;;;;5057226;28;20195;-78
2024/01/12 10:21:25;;;;;;;0.70;0.70;;;-1.40;99.90;;;;;;5057084;28;20190;-80
2024/01/12 10:24:07;;;;;;;0.80;0.80;;;-1.40;99.90;;;;;;5057163;28;20222;-77
2024/01/12 10:26:33;;;;;;;0.63;0.63;;;-1.40;99.90;;;;;;5040649;28;20186;-78
2024/01/12 10:29:05;;;;;;;0.77;0.77;;;-1.40;99.90;;;;;;5058462;28;20198;-79
2024/01/12 10:31:31;;;;;;;0.60;0.60;;;-1.30;99.90;;;;;;5039353;28;20190;-79
2024/01/12 10:33:59;;;;;;;0.70;0.70;;;-1.20;99.90;;;;;;5034592;28;20293;-80
2024/01/12 10:36:28;;;;;;;0.80;0.80;;;-1.10;99.90;;;;;;5038726;28;20189;-79
2024/01/12 10:38:58;;;;;;;0.60;0.60;;;-1.10;99.90;;;;;;5037846;28;20289;-80
2024/01/12 10:41:25;;;;;;;0.70;0.70;;;-1.00;99.90;;;;;;5035439;28;20198;-79
2024/01/12 10:43:52;;;;;;;0.70;0.70;;;-0.90;99.90;;;;;;5036559;28;20202;-78
2024/01/12 10:46:30;;;;;;;0.80;0.80;;;-0.80;99.90;;;;;;5036040;28;20582;-78
2024/01/12 10:49:10;;;;;;;0.60;0.60;;;-0.60;99.90;;;;;;5036378;28;20193;-79
2024/01/12 10:51:41;;;;;;;0.68;0.68;;;-0.50;99.90;;;;;;5036220;28;20701;-80
2024/01/12 10:54:17;;;;;;;1.10;1.10;;;-0.50;99.90;;;;;;5018757;28;20669;-79
2024/01/12 10:56:43;;;;;;;0.70;0.70;;;-0.40;99.90;;;;;;5036308;28;20749;-79
2024/01/12 10:59:09;;;;;;;0.70;0.70;;;-0.40;99.90;;;;;;5018703;28;20234;-79
2024/01/12 11:01:36;;;;;;;0.70;0.70;;;-0.40;99.90;;;;;;5035781;28;20198;-80
2024/01/12 11:04:04;;;;;;;0.75;0.75;;;-0.50;99.90;;;;;;5018201;28;20210;-80
2024/01/12 11:06:30;;;;;;;0.70;0.70;;;-0.40;99.90;;;;;;5018272;28;20198;-80
2024/01/12 11:08:57;;;;;;;0.70;0.70;;;-0.40;99.90;;;;;;5035686;28;20268;-81
2024/01/12 11:11:31;;;;;;;0.80;0.80;;;-0.40;99.90;;;;;;5035598;28;20190;-80
2024/01/12 11:13:58;;;;;;;0.80;0.80;;;-0.30;99.90;;;;;;5035865;28;20296;-79
2024/01/12 11:16:24;;;;;;;0.60;0.60;;;-0.30;99.90;;;;;;5017724;28;20688;-79
2024/01/12 11:18:50;;;;;;;0.75;0.75;;;-0.30;99.90;;;;;;5018072;28;20194;-80
2024/01/12 11:21:26;;;;;;;0.80;0.80;;;-0.30;99.90;;;;;;5035794;28;20194;-80
2024/01/12 11:23:53;;;;;;;0.70;0.70;;;-0.40;99.90;;;;;;5035780;28;20698;-80
2024/01/12 11:26:20;;;;;;;0.70;0.70;;;-0.40;99.90;;;;;;5035653;28;20187;-80
2024/01/12 11:28:47;;;;;;;0.75;0.75;;;-0.40;99.90;;;;;;5017638;28;20202;-80
2024/01/12 11:31:24;;;;;;;0.68;0.68;;;-0.40;99.90;;;;;;5028921;28;20202;-80
2024/01/12 11:33:57;;;;;;;0.70;0.70;;;-0.30;99.90;;;;;;5055843;28;20254;-80
2024/01/12 11:36:27;;;;;;;0.65;0.65;;;-0.30;99.90;;;;;;5055230;28;20681;-80
2024/01/12 11:38:55;;;;;;;0.70;0.70;;;-0.20;99.90;;;;;;5055314;28;20246;-82
2024/01/12 11:41:28;;;;;;;0.63;0.63;;;-0.10;99.90;;;;;;5037004;28;20197;-81
2024/01/12 11:43:54;;;;;;;0.85;0.82;;;-0.10;99.90;;;;;;5037606;28;20673;-81
2024/01/12 11:46:21;;;;;;;0.80;0.80;;;-0.10;99.90;;;;;;5050293;28;20194;-81
2024/01/12 11:48:49;;;;;;;0.85;0.85;;;-0.10;99.90;;;;;;5017451;28;20202;-80
2024/01/12 11:51:28;;;;;;;0.70;0.70;;;-0.10;99.90;;;;;;5035522;28;20190;-81
2024/01/12 11:53:57;;;;;;;0.88;0.88;;;-0.20;99.90;;;;;;5035143;28;20563;-84
2024/01/12 11:56:24;;;;;;;0.52;0.52;;;-0.20;99.90;;;;;;5017319;28;20205;-81
2024/01/12 11:58:54;;;;;;;0.90;0.90;;;-0.30;99.90;;;;;;5034828;28;20205;-82
2024/01/12 12:01:20;;;;;;;0.68;0.68;;;-0.30;99.90;;;;;;5034951;28;20214;-81
2024/01/12 12:03:46;;;;;;;0.65;0.65;;;-0.20;99.90;;;;;;5033475;28;20741;-81
2024/01/12 12:06:12;;;;;;;0.50;0.50;;;-0.30;99.90;;;;;;5035409;28;20194;-82
2024/01/12 12:08:42;;;;;;;0.70;0.70;;;-0.30;99.90;;;;;;5034664;28;20198;-82
2024/01/12 12:11:08;;;;;;;1.25;1.15;;;-0.20;99.90;;;;;;5016932;28;20284;-81
2024/01/12 12:13:35;;;;;;;0.80;0.80;;;-0.20;99.90;;;;;;5034663;28;20198;-83
2024/01/12 12:16:01;;;;;;;0.70;0.70;;;-0.10;99.90;;;;;;5035018;28;20194;-81
2024/01/12 12:18:29;;;;;;;0.77;0.77;;;-0.10;99.90;;;;;;5034547;28;20204;-81
2024/01/12 12:20:55;;;;;;;1.95;1.80;;;-0.10;99.90;;;;;;5016862;28;20199;-80
2024/01/12 12:23:20;;;;;;;0.70;0.70;;;-0.10;99.90;;;;;;5033933;28;20202;-81
2024/01/12 12:25:47;;;;;;;0.70;0.70;;;-0.10;99.90;;;;;;5034433;28;20197;-81
2024/01/12 12:28:14;;;;;;;0.70;0.70;;;-0.20;99.90;;;;;;5034427;28;20260;-81
2024/01/12 12:30:40;;;;;;;0.70;0.70;;;-0.20;99.90;;;;;;5034474;28;20538;-81
2024/01/12 12:33:08;;;;;;;0.60;0.60;;;-0.30;99.90;;;;;;5035505;28;20194;-81
2024/01/12 12:35:34;;;;;;;0.60;0.60;;;-0.40;99.90;;;;;;5034942;28;20201;-81
2024/01/12 12:38:03;;;;;;;0.70;0.70;;;-0.40;99.90;;;;;;5035447;28;20194;-81
2024/01/12 12:40:31;;;;;;;0.65;0.65;;;-0.50;99.90;;;;;;5033011;28;20642;-81
2024/01/12 12:42:58;;;;;;;0.80;0.80;;;-0.50;99.90;;;;;;5034004;28;20234;-81
2024/01/12 12:45:24;;;;;;;0.63;0.63;;;-0.50;99.90;;;;;;5033875;28;20573;-81
2024/01/12 12:47:50;;;;;;;0.70;0.70;;;-0.50;99.90;;;;;;5034946;28;20273;-81